Time;durP1;ratioP1;P1;durP2;ratioP2;P2;SDS_P1;SDS_P2;PMS_P1;PMS_P2;Temp;Humidity;BMP_temperature;BMP_pressure;BME280_temperature;BME280_humidity;BME280_pressure;Samples;Min_cycle;Max_cycle;Signal;HPM_P1;HPM_P2
2021/10/17 00:00:18;;;;;;;16.42;10.98;;;;;;;;;;5097239;28;20030;-77
2021/10/17 00:02:45;;;;;;;20.55;11.15;;;;;;;;;;5097022;28;20031;-75
2021/10/17 00:05:11;;;;;;;20.17;12.73;;;;;;;;;;5096512;28;20099;-75
2021/10/17 00:07:38;;;;;;;18.40;11.35;;;;;;;;;;5094729;28;20051;-75
2021/10/17 00:10:05;;;;;;;22.20;12.50;;;;;;;;;;5096694;28;20024;-78
2021/10/17 00:12:32;;;;;;;18.63;11.95;;;;;;;;;;5096350;28;20063;-77
2021/10/17 00:14:58;;;;;;;18.42;11.88;;;;;;;;;;5094752;28;20024;-78
2021/10/17 00:17:25;;;;;;;20.88;12.25;;;;;;;;;;5095038;28;20438;-77
2021/10/17 00:19:51;;;;;;;22.20;11.55;;;;;;;;;;5096647;28;20020;-77
2021/10/17 00:22:18;;;;;;;19.23;11.95;;;;;;;;;;5095859;28;20012;-77
2021/10/17 00:24:44;;;;;;;19.83;11.27;;;;;;;;;;5095945;28;20028;-76
2021/10/17 00:27:10;;;;;;;16.60;11.77;;;;;;;;;;5096455;28;20016;-77
2021/10/17 00:29:36;;;;;;;19.40;12.85;;;;;;;;;;5095671;28;20104;-77
2021/10/17 00:32:02;;;;;;;22.17;12.85;;;;;;;;;;5096199;28;20475;-78
2021/10/17 00:34:29;;;;;;;19.38;12.70;;;;;;;;;;5094307;28;20035;-78
2021/10/17 00:36:55;;;;;;;19.05;11.57;;;;;;;;;;5096174;28;20052;-78
2021/10/17 00:39:21;;;;;;;20.55;12.52;;;;;;;;;;5096469;28;20516;-78
2021/10/17 00:41:47;;;;;;;20.55;11.75;;;;;;;;;;5094146;28;20054;-77
2021/10/17 00:44:21;;;;;;;22.98;14.23;;;;;;;;;;5094512;28;20028;-77
2021/10/17 00:46:47;;;;;;;20.00;12.63;;;;;;;;;;5096000;28;20387;-77
2021/10/17 00:49:14;;;;;;;19.15;12.15;;;;;;;;;;5095490;28;20085;-76
2021/10/17 00:51:42;;;;;;;19.15;11.93;;;;;;;;;;5095626;28;20115;-77
2021/10/17 00:54:09;;;;;;;19.67;12.18;;;;;;;;;;5095612;28;20043;-77
2021/10/17 00:56:36;;;;;;;18.48;12.50;;;;;;;;;;5093911;28;20073;-77
2021/10/17 00:59:02;;;;;;;18.38;12.43;;;;;;;;;;5094198;28;20055;-78
2021/10/17 01:01:28;;;;;;;18.70;12.38;;;;;;;;;;5095440;28;20024;-77
2021/10/17 01:03:54;;;;;;;20.15;12.95;;;;;;;;;;5094955;28;20031;-78
2021/10/17 01:06:21;;;;;;;19.33;12.43;;;;;;;;;;5094116;28;20034;-77
2021/10/17 01:08:47;;;;;;;17.92;11.68;;;;;;;;;;5094024;28;20040;-74
2021/10/17 01:11:14;;;;;;;20.23;13.10;;;;;;;;;;5094830;28;20041;-77
2021/10/17 01:13:40;;;;;;;22.17;12.63;;;;;;;;;;5095176;28;20536;-76
2021/10/17 01:16:06;;;;;;;21.33;11.25;;;;;;;;;;5095104;28;20028;-77
2021/10/17 01:18:33;;;;;;;17.80;11.90;;;;;;;;;;5094820;28;20069;-73
2021/10/17 01:21:00;;;;;;;19.73;13.15;;;;;;;;;;5093720;28;20032;-77
2021/10/17 01:23:26;;;;;;;24.02;13.27;;;;;;;;;;5093731;28;20024;-77
2021/10/17 01:25:52;;;;;;;21.38;13.00;;;;;;;;;;5094521;28;20028;-76
2021/10/17 01:28:18;;;;;;;20.30;13.38;;;;;;;;;;5094842;28;20468;-77
2021/10/17 01:30:45;;;;;;;17.67;12.18;;;;;;;;;;5094497;28;20090;-77
2021/10/17 01:33:11;;;;;;;27.02;13.60;;;;;;;;;;5094827;28;20108;-77
2021/10/17 01:35:37;;;;;;;20.73;12.10;;;;;;;;;;5093997;28;20507;-78
2021/10/17 01:38:04;;;;;;;19.50;12.88;;;;;;;;;;5094423;28;20052;-78
2021/10/17 01:40:31;;;;;;;21.63;12.85;;;;;;;;;;5093395;28;20023;-77
2021/10/17 01:42:57;;;;;;;18.20;11.75;;;;;;;;;;5093388;28;20031;-77
2021/10/17 01:45:23;;;;;;;20.92;13.60;;;;;;;;;;5094186;28;20069;-77
2021/10/17 01:47:51;;;;;;;18.33;12.07;;;;;;;;;;5094605;28;20404;-76
2021/10/17 01:50:17;;;;;;;22.42;13.60;;;;;;;;;;5093213;28;20028;-74
2021/10/17 01:52:43;;;;;;;18.13;12.60;;;;;;;;;;5093752;28;20051;-74
2021/10/17 01:55:10;;;;;;;21.52;13.45;;;;;;;;;;5094838;28;20028;-77
2021/10/17 01:57:36;;;;;;;19.48;12.48;;;;;;;;;;5094421;28;20042;-77
2021/10/17 02:00:04;;;;;;;18.60;12.73;;;;;;;;;;5093952;28;20024;-77
2021/10/17 02:02:30;;;;;;;19.33;12.82;;;;;;;;;;5094481;28;20044;-77
2021/10/17 02:04:57;;;;;;;20.50;12.20;;;;;;;;;;5094182;28;20078;-77
2021/10/17 02:07:23;;;;;;;20.23;14.40;;;;;;;;;;5093870;28;20016;-77
2021/10/17 02:09:49;;;;;;;21.10;13.15;;;;;;;;;;5094797;28;20031;-76
2021/10/17 02:12:21;;;;;;;19.70;13.27;;;;;;;;;;5094072;28;20395;-78
2021/10/17 02:14:47;;;;;;;23.80;12.60;;;;;;;;;;5092490;28;20027;-76
2021/10/17 02:17:13;;;;;;;24.48;13.23;;;;;;;;;;5094036;28;20028;-77
2021/10/17 02:19:39;;;;;;;19.25;12.23;;;;;;;;;;5094062;28;20058;-77
2021/10/17 02:22:05;;;;;;;20.67;12.65;;;;;;;;;;5093558;28;20061;-76
2021/10/17 02:24:32;;;;;;;25.48;13.95;;;;;;;;;;5094248;28;20027;-76
2021/10/17 02:26:58;;;;;;;20.48;12.88;;;;;;;;;;5093560;28;20024;-77
2021/10/17 02:29:24;;;;;;;20.88;13.18;;;;;;;;;;5094011;28;20024;-76
2021/10/17 02:31:50;;;;;;;24.40;13.25;;;;;;;;;;5093876;28;20031;-76
2021/10/17 02:34:16;;;;;;;20.52;12.90;;;;;;;;;;5093486;28;20028;-78
2021/10/17 02:36:42;;;;;;;18.52;12.55;;;;;;;;;;5092538;28;20038;-77
2021/10/17 02:39:09;;;;;;;21.73;12.00;;;;;;;;;;5093820;28;20027;-75
2021/10/17 02:41:35;;;;;;;19.73;11.80;;;;;;;;;;5093264;28;20480;-75
2021/10/17 02:44:02;;;;;;;20.73;10.98;;;;;;;;;;5093583;28;20357;-75
2021/10/17 02:46:28;;;;;;;18.10;12.30;;;;;;;;;;5092194;28;20054;-74
2021/10/17 02:48:54;;;;;;;24.10;13.85;;;;;;;;;;5092002;28;20020;-74
2021/10/17 02:51:20;;;;;;;18.25;12.35;;;;;;;;;;5093554;28;20082;-75
2021/10/17 02:53:48;;;;;;;19.88;12.38;;;;;;;;;;5093973;28;20016;-75
2021/10/17 02:56:14;;;;;;;19.33;11.55;;;;;;;;;;5101642;28;20036;-74
2021/10/17 02:58:40;;;;;;;19.23;11.80;;;;;;;;;;5115577;28;20028;-75
2021/10/17 03:01:07;;;;;;;22.10;13.23;;;;;;;;;;5096062;28;20051;-75
2021/10/17 03:03:33;;;;;;;22.67;12.57;;;;;;;;;;5093122;28;20024;-75
2021/10/17 03:05:59;;;;;;;18.35;12.07;;;;;;;;;;5093575;28;20069;-75
2021/10/17 03:08:25;;;;;;;20.63;11.95;;;;;;;;;;5094393;28;20480;-75
2021/10/17 03:10:51;;;;;;;21.85;12.43;;;;;;;;;;5094029;28;20365;-75
2021/10/17 03:13:17;;;;;;;25.23;13.48;;;;;;;;;;5094394;28;20028;-76
2021/10/17 03:15:44;;;;;;;21.90;13.35;;;;;;;;;;5095007;28;20016;-75
2021/10/17 03:18:10;;;;;;;19.73;12.38;;;;;;;;;;5093835;28;20079;-75
2021/10/17 03:20:36;;;;;;;17.75;11.43;;;;;;;;;;5093992;28;20099;-75
2021/10/17 03:23:02;;;;;;;18.65;12.52;;;;;;;;;;5093502;28;20020;-75
2021/10/17 03:25:28;;;;;;;22.63;13.18;;;;;;;;;;5092880;28;20024;-75
2021/10/17 03:27:54;;;;;;;24.67;13.65;;;;;;;;;;5093400;28;20032;-75
2021/10/17 03:30:21;;;;;;;24.08;14.68;;;;;;;;;;5092780;28;20031;-75
2021/10/17 03:32:47;;;;;;;19.02;13.13;;;;;;;;;;5093130;28;20036;-75
2021/10/17 03:35:13;;;;;;;22.40;13.85;;;;;;;;;;5093277;28;20031;-76
2021/10/17 03:37:39;;;;;;;23.63;13.32;;;;;;;;;;5092981;28;20028;-76
2021/10/17 03:40:06;;;;;;;20.70;11.93;;;;;;;;;;5093061;28;20021;-76
2021/10/17 03:42:32;;;;;;;21.95;12.77;;;;;;;;;;5091805;28;20387;-76
2021/10/17 03:44:58;;;;;;;22.65;13.20;;;;;;;;;;5092621;28;20357;-75
2021/10/17 03:47:24;;;;;;;21.73;13.20;;;;;;;;;;5091732;28;20024;-76
2021/10/17 03:49:51;;;;;;;21.42;13.57;;;;;;;;;;5092971;28;20020;-76
2021/10/17 03:52:17;;;;;;;19.10;12.32;;;;;;;;;;5091057;28;20127;-76
2021/10/17 03:54:44;;;;;;;18.38;11.77;;;;;;;;;;5092946;28;20027;-76
2021/10/17 03:57:11;;;;;;;18.88;12.68;;;;;;;;;;5091524;28;20031;-76
2021/10/17 03:59:37;;;;;;;21.42;13.88;;;;;;;;;;5094658;28;20016;-77
2021/10/17 04:02:03;;;;;;;23.77;12.57;;;;;;;;;;5096554;28;20483;-76
2021/10/17 04:04:29;;;;;;;18.50;11.38;;;;;;;;;;5096469;28;20028;-76
2021/10/17 04:06:56;;;;;;;22.10;13.10;;;;;;;;;;5096153;28;20384;-77
2021/10/17 04:09:22;;;;;;;19.48;12.07;;;;;;;;;;5096363;28;20027;-77
2021/10/17 04:11:48;;;;;;;20.27;12.20;;;;;;;;;;5094933;28;20036;-76
2021/10/17 04:14:15;;;;;;;17.17;11.98;;;;;;;;;;5094666;28;20028;-76
2021/10/17 04:16:41;;;;;;;20.73;12.70;;;;;;;;;;5096292;28;20095;-76
2021/10/17 04:19:07;;;;;;;19.48;12.20;;;;;;;;;;5096417;28;20472;-76
2021/10/17 04:21:33;;;;;;;19.95;12.57;;;;;;;;;;5094498;28;20029;-76
2021/10/17 04:23:59;;;;;;;19.02;11.70;;;;;;;;;;5096103;28;20032;-76
2021/10/17 04:26:26;;;;;;;17.80;12.07;;;;;;;;;;5096228;28;20016;-76
2021/10/17 04:28:52;;;;;;;18.25;12.50;;;;;;;;;;5096221;28;20031;-76
2021/10/17 04:31:18;;;;;;;20.88;12.98;;;;;;;;;;5096201;28;20089;-77
2021/10/17 04:33:44;;;;;;;19.92;12.30;;;;;;;;;;5094310;28;20027;-76
2021/10/17 04:36:10;;;;;;;19.33;12.63;;;;;;;;;;5096218;28;20475;-77
2021/10/17 04:38:38;;;;;;;22.10;12.90;;;;;;;;;;5096190;28;20376;-77
2021/10/17 04:41:04;;;;;;;20.42;13.02;;;;;;;;;;5095377;28;20080;-77
2021/10/17 04:43:31;;;;;;;20.52;13.57;;;;;;;;;;5094423;28;20051;-76
2021/10/17 04:45:57;;;;;;;21.02;13.60;;;;;;;;;;5094417;28;20028;-76
2021/10/17 04:48:23;;;;;;;25.52;14.40;;;;;;;;;;5094015;28;20097;-76
2021/10/17 04:50:50;;;;;;;20.77;12.20;;;;;;;;;;5094108;28;20044;-76
2021/10/17 04:53:16;;;;;;;22.85;14.48;;;;;;;;;;5095602;28;20034;-77
2021/10/17 04:55:42;;;;;;;24.58;13.75;;;;;;;;;;5095110;28;20020;-77
2021/10/17 04:58:08;;;;;;;23.60;13.20;;;;;;;;;;5094145;28;20495;-77
2021/10/17 05:00:34;;;;;;;22.38;14.32;;;;;;;;;;5095412;28;20326;-77
2021/10/17 05:03:01;;;;;;;19.50;12.65;;;;;;;;;;5093736;28;20027;-77
2021/10/17 05:05:27;;;;;;;21.88;12.82;;;;;;;;;;5094058;28;20055;-77
2021/10/17 05:07:53;;;;;;;23.05;12.73;;;;;;;;;;5095417;28;20047;-77
2021/10/17 05:10:19;;;;;;;21.15;13.52;;;;;;;;;;5094830;28;20077;-78
2021/10/17 05:12:45;;;;;;;19.70;13.15;;;;;;;;;;5093729;28;20032;-78
2021/10/17 05:15:11;;;;;;;21.10;12.80;;;;;;;;;;5095125;28;20468;-77
2021/10/17 05:17:38;;;;;;;20.08;12.68;;;;;;;;;;5094699;28;20093;-77
2021/10/17 05:20:04;;;;;;;25.95;14.38;;;;;;;;;;5095024;28;20026;-76
2021/10/17 05:22:30;;;;;;;29.13;17.00;;;;;;;;;;5095034;28;20468;-76
2021/10/17 05:24:56;;;;;;;28.48;15.48;;;;;;;;;;5094644;28;20046;-76
2021/10/17 05:27:22;;;;;;;34.28;17.38;;;;;;;;;;5093710;28;20035;-77
2021/10/17 05:29:49;;;;;;;33.30;19.02;;;;;;;;;;5094497;28;20031;-76
2021/10/17 05:32:15;;;;;;;27.45;15.57;;;;;;;;;;5094767;28;20369;-77
2021/10/17 05:34:41;;;;;;;31.17;17.80;;;;;;;;;;5093415;28;20435;-77
2021/10/17 05:37:07;;;;;;;33.55;18.27;;;;;;;;;;5094574;28;20043;-77
2021/10/17 05:39:33;;;;;;;26.80;16.23;;;;;;;;;;5093358;28;20111;-78
2021/10/17 05:42:03;;;;;;;30.30;17.35;;;;;;;;;;5094486;28;20057;-77
2021/10/17 05:44:29;;;;;;;27.52;17.23;;;;;;;;;;5094425;28;20491;-77
2021/10/17 05:46:55;;;;;;;31.30;18.00;;;;;;;;;;5094472;28;20024;-76
2021/10/17 05:49:21;;;;;;;35.20;19.88;;;;;;;;;;5094643;28;20028;-76
2021/10/17 05:51:47;;;;;;;33.38;20.35;;;;;;;;;;5092381;28;20048;-75
2021/10/17 05:54:14;;;;;;;29.50;17.88;;;;;;;;;;5094431;28;20472;-75
2021/10/17 05:56:42;;;;;;;28.08;17.63;;;;;;;;;;5094161;28;20035;-75
2021/10/17 05:59:09;;;;;;;28.52;17.13;;;;;;;;;;5092491;28;20020;-77
2021/10/17 06:01:38;;;;;;;28.73;17.75;;;;;;;;;;5094403;28;20020;-77
2021/10/17 06:04:05;;;;;;;30.75;17.90;;;;;;;;;;5094745;28;20367;-76
2021/10/17 06:06:31;;;;;;;26.67;16.08;;;;;;;;;;5093748;28;20035;-76
2021/10/17 06:08:59;;;;;;;24.38;15.50;;;;;;;;;;5094443;28;20020;-76
2021/10/17 06:11:25;;;;;;;26.73;16.38;;;;;;;;;;5092762;28;20020;-78
2021/10/17 06:13:51;;;;;;;20.02;12.90;;;;;;;;;;5093721;28;20115;-76
2021/10/17 06:16:17;;;;;;;28.10;16.15;;;;;;;;;;5097533;28;20016;-76
2021/10/17 06:18:43;;;;;;;26.80;16.33;;;;;;;;;;5097371;28;20106;-76
2021/10/17 06:21:12;;;;;;;22.70;14.55;;;;;;;;;;5091894;28;20028;-74
2021/10/17 06:23:38;;;;;;;31.00;16.60;;;;;;;;;;5093833;28;20110;-75
2021/10/17 06:26:04;;;;;;;23.95;15.45;;;;;;;;;;5093735;28;20028;-76
2021/10/17 06:28:30;;;;;;;26.60;14.15;;;;;;;;;;5093767;28;20031;-75
2021/10/17 06:30:56;;;;;;;22.90;14.63;;;;;;;;;;5093970;28;20506;-76
2021/10/17 06:33:23;;;;;;;22.88;14.77;;;;;;;;;;5093357;28;20399;-75
2021/10/17 06:35:49;;;;;;;24.17;15.75;;;;;;;;;;5093569;28;20020;-75
2021/10/17 06:38:15;;;;;;;25.08;13.93;;;;;;;;;;5094150;28;20035;-77
2021/10/17 06:40:41;;;;;;;26.23;15.70;;;;;;;;;;5093471;28;20388;-76
2021/10/17 06:43:07;;;;;;;27.38;15.25;;;;;;;;;;5092326;28;20027;-75
2021/10/17 06:45:34;;;;;;;28.25;15.93;;;;;;;;;;5092152;28;20028;-75
2021/10/17 06:48:27;;;;;;;23.42;14.85;;;;;;;;;;5070311;28;20399;-75
2021/10/17 06:51:18;;;;;;;25.65;15.30;;;;;;;;;;5111470;27;20398;-76
2021/10/17 06:53:44;;;;;;;22.85;14.10;;;;;;;;;;5111139;28;20031;-76
2021/10/17 06:57:20;;;;;;;26.17;15.88;;;;;;;;;;5111287;27;20385;-75
2021/10/17 07:00:39;;;;;;;27.08;18.25;;;;;;;;;;5111326;27;20385;-77
2021/10/17 07:03:45;;;;;;;23.20;15.10;;;;;;;;;;5172970;27;20843;-77
2021/10/17 07:06:11;;;;;;;21.52;14.10;;;;;;;;;;5173226;27;20478;-75
2021/10/17 07:08:37;;;;;;;26.15;17.75;;;;;;;;;;5173026;27;20478;-76
2021/10/17 07:11:28;;;;;;;23.77;15.23;;;;;;;;;;5092246;27;20518;-75
2021/10/17 07:13:55;;;;;;;27.58;17.70;;;;;;;;;;5090995;28;20048;-76
2021/10/17 07:17:52;;;;;;;34.00;20.05;;;;;;;;;;5111171;27;20413;-75
2021/10/17 07:20:18;;;;;;;26.70;17.58;;;;;;;;;;5111092;28;20034;-75
2021/10/17 07:22:44;;;;;;;30.20;17.98;;;;;;;;;;5110796;28;20024;-75
2021/10/17 07:25:10;;;;;;;23.15;15.15;;;;;;;;;;5111307;28;20028;-77
2021/10/17 07:29:18;;;;;;;25.42;16.80;;;;;;;;;;5111913;27;21048;-77
2021/10/17 07:32:42;;;;;;;22.48;15.02;;;;;;;;;;5111687;27;20393;-75
2021/10/17 07:36:01;;;;;;;23.50;15.20;;;;;;;;;;5111126;27;20508;-75
2021/10/17 07:38:27;;;;;;;27.08;16.38;;;;;;;;;;5110956;28;20069;-75
2021/10/17 07:40:53;;;;;;;25.38;15.90;;;;;;;;;;5111742;28;20385;-74
2021/10/17 07:43:19;;;;;;;26.27;16.38;;;;;;;;;;5111004;28;20102;-75
2021/10/17 07:45:46;;;;;;;24.00;16.00;;;;;;;;;;5110617;28;20099;-73
2021/10/17 07:48:12;;;;;;;28.52;16.65;;;;;;;;;;5110904;28;20026;-74
2021/10/17 07:52:07;;;;;;;25.42;17.08;;;;;;;;;;5110899;27;20516;-75
2021/10/17 07:55:55;;;;;;;26.63;17.95;;;;;;;;;;5111739;27;21052;-76
2021/10/17 07:58:55;;;;;;;26.55;16.63;;;;;;;;;;5111185;27;20380;-76
2021/10/17 08:04:38;;;;;;;26.15;14.98;;;;;;;;;;5111402;27;20860;-77
2021/10/17 08:08:02;;;;;;;21.17;13.60;;;;;;;;;;5111979;27;20404;-75
2021/10/17 08:10:28;;;;;;;24.30;13.57;;;;;;;;;;5109775;28;20027;-76
2021/10/17 08:18:29;;;;;;;21.58;14.90;;;;;;;;;;5111542;27;20310;-75
2021/10/17 08:22:38;;;;;;;21.23;14.82;;;;;;;;;;5111996;27;20389;-76
2021/10/17 08:25:06;;;;;;;21.35;13.38;;;;;;;;;;5111077;28;20035;-76
2021/10/17 08:27:32;;;;;;;22.90;14.98;;;;;;;;;;5110679;28;20113;-76
2021/10/17 08:29:58;;;;;;;27.05;16.25;;;;;;;;;;5109661;28;20037;-76
2021/10/17 08:32:24;;;;;;;23.30;14.45;;;;;;;;;;5111141;28;20058;-76
2021/10/17 08:34:51;;;;;;;23.25;15.27;;;;;;;;;;5110669;28;20479;-76
2021/10/17 08:37:17;;;;;;;19.92;13.77;;;;;;;;;;5110730;28;20024;-76
2021/10/17 08:44:53;;;;;;;29.80;15.65;;;;;;;;;;5111743;27;20388;-77
2021/10/17 08:47:19;;;;;;;28.85;15.65;;;;;;;;;;5109516;28;20032;-76
2021/10/17 08:49:46;;;;;;;25.45;17.17;;;;;;;;;;5111185;28;20019;-76
2021/10/17 08:52:58;;;;;;;26.20;16.60;;;;;;;;;;5111943;27;20384;-76
2021/10/17 08:56:15;;;;;;;24.40;15.00;;;;;;;;;;5110936;27;20726;-77
2021/10/17 08:58:42;;;;;;;28.55;14.95;;;;;;;;;;5110044;28;20035;-77
2021/10/17 09:01:12;;;;;;;24.17;14.90;;;;;;;;;;5110613;28;20077;-77
2021/10/17 09:03:39;;;;;;;25.65;15.25;;;;;;;;;;5111170;28;20092;-77
2021/10/17 09:10:10;;;;;;;20.02;13.18;;;;;;;;;;5110831;27;20753;-77
2021/10/17 09:12:37;;;;;;;26.92;14.85;;;;;;;;;;5110871;28;20141;-76
2021/10/17 09:15:22;;;;;;;25.27;13.93;;;;;;;;;;5111390;28;20107;-76
2021/10/17 09:18:04;;;;;;;21.60;12.35;;;;;;;;;;5110891;28;20032;-77
2021/10/17 09:20:31;;;;;;;17.05;12.23;;;;;;;;;;5111036;28;20099;-75
2021/10/17 09:23:41;;;;;;;21.45;14.57;;;;;;;;;;5110732;27;20450;-77
2021/10/17 09:28:19;;;;;;;21.73;13.93;;;;;;;;;;5111102;27;20435;-77
2021/10/17 09:38:24;;;;;;;20.90;12.60;;;;;;;;;;5111926;27;20381;-75
2021/10/17 09:43:56;;;;;;;20.90;13.95;;;;;;;;;;5111211;27;20396;-75
2021/10/17 09:46:22;;;;;;;22.98;13.63;;;;;;;;;;5111232;28;20034;-74
2021/10/17 09:52:34;;;;;;;22.05;14.23;;;;;;;;;;5111628;27;20470;-75
2021/10/17 09:55:07;;;;;;;20.02;13.75;;;;;;;;;;5111131;28;20035;-75
2021/10/17 09:57:33;;;;;;;;;;;;;;;;;;5111325;28;20035;-75
2021/10/17 10:00:44;;;;;;;27.08;17.15;;;;;;;;;;5071069;28;20399;-75
2021/10/17 10:03:11;;;;;;;22.60;14.18;;;;;;;;;;5070539;28;20497;-75
2021/10/17 10:05:37;;;;;;;21.60;11.63;;;;;;;;;;5070148;28;20499;-75
2021/10/17 10:08:04;;;;;;;21.77;14.60;;;;;;;;;;5070349;28;20032;-75
2021/10/17 10:10:31;;;;;;;19.83;13.30;;;;;;;;;;5052579;28;20381;-74
2021/10/17 10:12:58;;;;;;;19.83;11.45;;;;;;;;;;5070106;28;20031;-74
2021/10/17 10:15:25;;;;;;;20.00;11.98;;;;;;;;;;5070602;28;20099;-74
2021/10/17 10:19:45;;;;;;;21.23;13.07;;;;;;;;;;5111384;27;20400;-75
2021/10/17 10:22:13;;;;;;;23.38;15.00;;;;;;;;;;5111000;28;20027;-75
2021/10/17 10:24:39;;;;;;;23.58;15.20;;;;;;;;;;5111108;28;20024;-75
2021/10/17 10:28:56;;;;;;;20.35;12.48;;;;;;;;;;5111763;27;20414;-74
2021/10/17 10:31:41;;;;;;;24.55;12.15;;;;;;;;;;5110918;28;20418;-75
2021/10/17 10:34:07;;;;;;;26.45;17.17;;;;;;;;;;5110812;28;20028;-74
2021/10/17 10:36:43;;;;;;;27.83;17.20;;;;;;;;;;5111038;28;20028;-75
2021/10/17 10:39:11;;;;;;;23.75;15.98;;;;;;;;;;5110899;28;20095;-75
2021/10/17 10:41:48;;;;;;;20.83;13.68;;;;;;;;;;5109136;28;20119;-74
2021/10/17 10:44:19;;;;;;;22.23;13.02;;;;;;;;;;5110768;28;20032;-73
2021/10/17 10:46:45;;;;;;;15.80;9.75;;;;;;;;;;5110410;28;20019;-73
2021/10/17 10:49:11;;;;;;;22.17;13.43;;;;;;;;;;5110781;28;20028;-74
2021/10/17 10:51:48;;;;;;;20.75;12.25;;;;;;;;;;5110679;28;20020;-74
2021/10/17 10:54:24;;;;;;;19.10;13.45;;;;;;;;;;5110280;28;20032;-74
2021/10/17 10:58:59;;;;;;;13.10;9.07;;;;;;;;;;5111437;27;20916;-75
2021/10/17 11:01:44;;;;;;;14.32;8.75;;;;;;;;;;5110684;28;20032;-75
2021/10/17 11:04:10;;;;;;;14.27;8.57;;;;;;;;;;5111108;28;20031;-74
2021/10/17 11:06:36;;;;;;;15.98;11.27;;;;;;;;;;5109823;28;20484;-74
2021/10/17 11:09:22;;;;;;;14.25;9.10;;;;;;;;;;5110636;28;20055;-75
2021/10/17 11:11:48;;;;;;;14.63;8.68;;;;;;;;;;5111047;28;20016;-74
2021/10/17 11:14:15;;;;;;;20.60;11.35;;;;;;;;;;5111191;28;20437;-74
2021/10/17 11:16:41;;;;;;;18.00;11.80;;;;;;;;;;5110396;28;20421;-73
2021/10/17 11:21:01;;;;;;;23.80;13.88;;;;;;;;;;5111537;27;20397;-74
2021/10/17 11:23:29;;;;;;;22.42;11.65;;;;;;;;;;5110472;28;20106;-75
2021/10/17 11:28:51;;;;;;;20.20;11.68;;;;;;;;;;5111542;27;20854;-74
2021/10/17 11:31:25;;;;;;;17.45;8.82;;;;;;;;;;5111210;28;20024;-74
2021/10/17 11:33:51;;;;;;;16.40;10.77;;;;;;;;;;5111382;28;20427;-74
2021/10/17 11:36:18;;;;;;;17.50;9.73;;;;;;;;;;5109392;28;20081;-74
2021/10/17 11:38:45;;;;;;;17.25;9.68;;;;;;;;;;5111284;28;20038;-74
2021/10/17 11:45:05;;;;;;;16.85;10.82;;;;;;;;;;5111184;27;20379;-74
2021/10/17 11:52:23;;;;;;;13.85;8.57;;;;;;;;;;5111273;27;20465;-75
2021/10/17 11:54:50;;;;;;;29.00;14.80;;;;;;;;;;5111058;28;20092;-75
2021/10/17 11:58:41;;;;;;;22.33;12.05;;;;;;;;;;5110785;27;20525;-74
2021/10/17 12:02:51;;;;;;;18.70;10.45;;;;;;;;;;5031031;28;20422;-76
2021/10/17 12:05:18;;;;;;;21.67;14.52;;;;;;;;;;5030547;28;20030;-76
2021/10/17 12:12:11;;;;;;;35.72;20.63;;;;;;;;;;5110965;27;20891;-75
2021/10/17 12:16:27;;;;;;;25.38;15.52;;;;;;;;;;5069529;28;20452;-74
2021/10/17 12:18:54;;;;;;;22.13;12.52;;;;;;;;;;5069230;28;20375;-75
2021/10/17 12:21:25;;;;;;;20.27;15.60;;;;;;;;;;5070639;28;20024;-76
2021/10/17 12:25:36;;;;;;;19.80;13.32;;;;;;;;;;5110929;27;20397;-75
2021/10/17 12:28:02;;;;;;;15.73;9.95;;;;;;;;;;5111243;28;20353;-76
2021/10/17 12:30:33;;;;;;;19.23;12.98;;;;;;;;;;5126796;28;20115;-76
2021/10/17 12:32:59;;;;;;;16.50;10.00;;;;;;;;;;5109335;28;20020;-76
2021/10/17 12:35:33;;;;;;;13.60;8.55;;;;;;;;;;5111232;28;20028;-77
2021/10/17 12:40:04;;;;;;;17.27;10.63;;;;;;;;;;5111152;27;20754;-77
2021/10/17 12:42:30;;;;;;;16.27;10.13;;;;;;;;;;5109952;28;20140;-76
2021/10/17 12:46:33;;;;;;;13.68;8.50;;;;;;;;;;5131366;27;20313;-76
2021/10/17 12:49:47;;;;;;;15.27;8.95;;;;;;;;;;5111228;27;20401;-75
2021/10/17 12:56:00;;;;;;;24.17;14.52;;;;;;;;;;5111323;27;20420;-76
2021/10/17 13:00:02;;;;;;;16.65;10.60;;;;;;;;;;5112311;27;20529;-76
2021/10/17 13:05:18;;;;;;;23.42;15.40;;;;;;;;;;5111595;27;20416;-75
2021/10/17 13:07:44;;;;;;;19.35;12.65;;;;;;;;;;5109510;28;20035;-74
2021/10/17 13:12:12;;;;;;;22.10;14.23;;;;;;;;;;5111447;27;20408;-77
2021/10/17 13:14:39;;;;;;;17.42;10.82;;;;;;;;;;5109688;28;20142;-76
2021/10/17 13:21:13;;;;;;;15.98;9.63;;;;;;;;;;5110885;27;20420;-75
2021/10/17 13:26:14;;;;;;;17.42;11.75;;;;;;;;;;5111626;27;20996;-76
2021/10/17 13:28:40;;;;;;;17.08;11.73;;;;;;;;;;5109433;28;20032;-76
2021/10/17 13:31:06;;;;;;;26.25;13.43;;;;;;;;;;5109793;28;20390;-76
2021/10/17 13:33:32;;;;;;;20.88;13.55;;;;;;;;;;5111129;28;20027;-77
2021/10/17 13:41:20;;;;;;;17.02;11.25;;;;;;;;;;5092260;27;20398;-75
2021/10/17 13:45:29;;;;;;;16.13;9.30;;;;;;;;;;5111664;27;20508;-75
2021/10/17 13:47:56;;;;;;;17.40;11.68;;;;;;;;;;5111399;28;20492;-75
2021/10/17 13:50:23;;;;;;;23.70;14.02;;;;;;;;;;5110875;28;20032;-75
2021/10/17 13:52:49;;;;;;;19.92;12.07;;;;;;;;;;5111204;28;20024;-75
2021/10/17 13:55:16;;;;;;;23.88;14.63;;;;;;;;;;5110906;28;20059;-75
2021/10/17 13:57:44;;;;;;;26.88;16.17;;;;;;;;;;5110442;28;20062;-75
2021/10/17 14:00:11;;;;;;;43.92;25.73;;;;;;;;;;5111458;28;20456;-74
2021/10/17 14:06:31;;;;;;;32.97;18.08;;;;;;;;;;5111516;27;20514;-76
2021/10/17 14:08:57;;;;;;;31.35;17.60;;;;;;;;;;5111123;28;20487;-75
2021/10/17 14:11:23;;;;;;;29.02;16.80;;;;;;;;;;5110873;28;20027;-76
2021/10/17 14:13:49;;;;;;;30.27;20.75;;;;;;;;;;5111020;28;20522;-75
2021/10/17 14:17:21;;;;;;;26.02;19.27;;;;;;;;;;5132086;27;20309;-77
2021/10/17 14:21:19;;;;;;;25.60;18.73;;;;;;;;;;5071086;28;20403;-75
2021/10/17 14:23:45;;;;;;;31.23;22.05;;;;;;;;;;5070525;28;20544;-74
2021/10/17 14:26:12;;;;;;;36.35;24.00;;;;;;;;;;5070149;28;20055;-75
2021/10/17 14:29:38;;;;;;;34.22;24.58;;;;;;;;;;5071355;28;20403;-76
2021/10/17 14:35:11;;;;;;;29.05;21.85;;;;;;;;;;5111108;27;21042;-76
2021/10/17 14:37:37;;;;;;;30.60;19.27;;;;;;;;;;5111148;28;20472;-76
2021/10/17 14:44:55;;;;;;;27.95;17.42;;;;;;;;;;5111884;27;21032;-76
2021/10/17 14:49:25;;;;;;;27.63;17.33;;;;;;;;;;5111851;27;20428;-76
2021/10/17 14:51:51;;;;;;;25.40;18.65;;;;;;;;;;5110030;28;20023;-76
2021/10/17 14:54:17;;;;;;;28.95;19.73;;;;;;;;;;5110878;28;20467;-77
2021/10/17 14:56:44;;;;;;;28.35;17.73;;;;;;;;;;5110952;28;20346;-76
2021/10/17 14:59:10;;;;;;;34.65;22.70;;;;;;;;;;5110881;28;20016;-77
2021/10/17 15:01:37;;;;;;;38.97;24.90;;;;;;;;;;5110428;28;20027;-76
2021/10/17 15:04:03;;;;;;;45.15;26.88;;;;;;;;;;5111733;28;20024;-76
2021/10/17 15:06:29;;;;;;;39.42;26.40;;;;;;;;;;5110815;28;20102;-76
2021/10/17 15:08:56;;;;;;;46.03;30.38;;;;;;;;;;5110144;28;20499;-76
2021/10/17 15:12:38;;;;;;;37.60;24.10;;;;;;;;;;5111867;27;20416;-76
2021/10/17 15:15:05;;;;;;;47.08;30.25;;;;;;;;;;5110812;28;20028;-78
2021/10/17 15:17:31;;;;;;;34.85;23.80;;;;;;;;;;5111151;28;20032;-75
2021/10/17 15:20:38;;;;;;;34.85;23.13;;;;;;;;;;5111944;27;20412;-75
2021/10/17 15:24:23;;;;;;;46.13;30.85;;;;;;;;;;5092152;27;20829;-76
2021/10/17 15:26:49;;;;;;;38.08;25.73;;;;;;;;;;5090886;28;20028;-75
2021/10/17 15:29:15;;;;;;;35.47;20.70;;;;;;;;;;5090395;28;20472;-76
2021/10/17 15:31:42;;;;;;;33.90;21.65;;;;;;;;;;5089480;28;20051;-76
2021/10/17 15:35:30;;;;;;;38.38;25.02;;;;;;;;;;5111396;27;20749;-78
2021/10/17 15:37:56;;;;;;;35.85;24.67;;;;;;;;;;5111221;28;20495;-77
2021/10/17 15:40:23;;;;;;;48.67;33.00;;;;;;;;;;5109813;28;20020;-76
2021/10/17 15:42:50;;;;;;;92.25;57.55;;;;;;;;;;5110528;28;20372;-75
2021/10/17 15:45:16;;;;;;;66.45;44.05;;;;;;;;;;5111209;28;20063;-76
2021/10/17 15:47:43;;;;;;;75.07;51.95;;;;;;;;;;5111020;28;20357;-77
2021/10/17 15:51:30;;;;;;;53.40;37.85;;;;;;;;;;5111390;27;20422;-77
2021/10/17 15:53:58;;;;;;;53.90;35.80;;;;;;;;;;5110300;28;20475;-76
2021/10/17 15:57:34;;;;;;;42.90;30.52;;;;;;;;;;5111180;27;20411;-78
2021/10/17 16:01:25;;;;;;;65.68;43.05;;;;;;;;;;5071033;28;20418;-77
2021/10/17 16:05:06;;;;;;;86.05;54.25;;;;;;;;;;5112662;27;20748;-76
2021/10/17 16:08:37;;;;;;;63.53;42.40;;;;;;;;;;5111712;27;20753;-77
2021/10/17 16:12:44;;;;;;;52.47;36.65;;;;;;;;;;5112126;27;20392;-78
2021/10/17 16:15:10;;;;;;;52.15;36.10;;;;;;;;;;5111186;28;20016;-77
2021/10/17 16:17:36;;;;;;;46.35;30.40;;;;;;;;;;5113363;28;20402;-77
2021/10/17 16:20:05;;;;;;;48.35;33.15;;;;;;;;;;5113437;28;20028;-77
2021/10/17 16:22:32;;;;;;;50.35;32.35;;;;;;;;;;5111608;28;20422;-76
2021/10/17 16:24:58;;;;;;;53.38;36.25;;;;;;;;;;5110733;28;20020;-76
2021/10/17 16:29:06;;;;;;;60.38;40.15;;;;;;;;;;5111773;27;20520;-78
2021/10/17 16:31:34;;;;;;;51.15;31.73;;;;;;;;;;5110137;28;20438;-77
2021/10/17 16:34:00;;;;;;;48.85;30.98;;;;;;;;;;5110387;28;20028;-78
2021/10/17 16:40:34;;;;;;;48.22;29.25;;;;;;;;;;5111920;27;20516;-78
2021/10/17 16:45:45;;;;;;;39.58;26.08;;;;;;;;;;5050632;28;20405;-77